Time;durP1;ratioP1;P1;durP2;ratioP2;P2;SDS_P1;SDS_P2;PMS_P1;PMS_P2;Temp;Humidity;BMP_temperature;BMP_pressure;BME280_temperature;BME280_humidity;BME280_pressure;Samples;Min_cycle;Max_cycle;Signal;HPM_P1;HPM_P2
2022/09/10 00:00:19;;;;;;;5.37;2.10;;;;;;;16.14;97.50;98015.19;4128319;28;20631;-88
2022/09/10 00:02:22;;;;;;;4.27;2.40;;;;;;;16.17;97.06;98014.91;4125318;28;21279;-88
2022/09/10 00:04:25;;;;;;;3.80;1.80;;;;;;;16.18;96.88;98011.31;4111444;28;20642;-88
2022/09/10 00:06:29;;;;;;;4.03;1.97;;;;;;;16.19;98.46;98019.06;4126918;28;20679;-89
2022/09/10 00:08:33;;;;;;;7.13;2.10;;;;;;;16.21;98.77;98022.38;4127436;28;20682;-89
2022/09/10 00:10:41;;;;;;;3.97;2.00;;;;;;;16.24;97.68;98011.59;4127049;28;20638;-88
2022/09/10 00:12:47;;;;;;;4.30;2.20;;;;;;;16.27;98.95;98021.84;4127622;28;20752;-90
2022/09/10 00:14:52;;;;;;;3.83;2.20;;;;;;;16.28;97.82;98014.78;4140052;28;20761;-89
2022/09/10 00:16:55;;;;;;;4.40;2.00;;;;;;;16.26;98.18;98017.56;4128052;28;20746;-89
2022/09/10 00:18:59;;;;;;;5.03;2.20;;;;;;;16.27;98.29;97999.97;4126100;28;20678;-88
2022/09/10 00:21:05;;;;;;;4.00;2.10;;;;;;;16.26;97.63;97995.69;4126538;28;21051;-89
2022/09/10 00:23:09;;;;;;;4.47;2.13;;;;;;;16.29;97.12;97996.22;4124696;28;21286;-87
2022/09/10 00:25:14;;;;;;;7.23;2.53;;;;;;;16.30;97.79;97999.69;4140597;28;20689;-90
2022/09/10 00:27:18;;;;;;;3.10;2.10;;;;;;;16.27;97.06;97986.81;4124759;28;20721;-87
2022/09/10 00:29:21;;;;;;;2.60;1.70;;;;;;;16.28;96.96;97980.56;4112052;28;20695;-89
2022/09/10 00:31:25;;;;;;;3.23;2.13;;;;;;;16.28;98.06;97980.56;4108995;28;21076;-88
2022/09/10 00:33:28;;;;;;;4.57;1.70;;;;;;;16.31;98.17;97986.38;4124414;28;20682;-88
2022/09/10 00:35:32;;;;;;;5.70;1.90;;;;;;;16.32;97.63;97979.31;4141848;28;20630;-88
2022/09/10 00:37:36;;;;;;;2.53;2.10;;;;;;;16.33;98.85;97978.34;4126562;28;21008;-88
2022/09/10 00:39:39;;;;;;;2.93;1.60;;;;;;;16.33;97.49;97980.97;4126571;28;20721;-87
2022/09/10 00:41:44;;;;;;;3.37;1.63;;;;;;;16.33;97.25;97978.34;4109723;28;21279;-88
2022/09/10 00:43:54;;;;;;;1.90;1.30;;;;;;;16.32;98.27;97974.06;4124639;28;20644;-87
2022/09/10 00:45:57;;;;;;;6.17;1.70;;;;;;;16.32;97.45;97968.78;4137586;28;20630;-88
2022/09/10 00:48:03;;;;;;;4.40;1.97;;;;;;;16.34;97.45;97978.22;4141091;28;20641;-88
2022/09/10 00:50:14;;;;;;;2.97;1.70;;;;;;;16.36;97.38;97970.16;4139396;28;20626;-89
2022/09/10 00:52:18;;;;;;;5.50;1.93;;;;;;;16.36;96.82;97963.09;4137809;28;20639;-88
2022/09/10 00:54:24;;;;;;;4.30;1.53;;;;;;;16.39;97.43;97973.34;4125547;28;21503;-87
2022/09/10 00:56:28;;;;;;;2.60;1.47;;;;;;;16.40;96.47;97974.97;4136678;28;21212;-88
2022/09/10 00:58:31;;;;;;;3.90;1.70;;;;;;;16.40;97.53;97961.81;4140686;28;20626;-88
2022/09/10 01:00:36;;;;;;;5.60;1.57;;;;;;;16.42;97.51;97974.84;4123947;28;20682;-88
2022/09/10 01:02:39;;;;;;;4.93;2.03;;;;;;;16.44;96.34;97972.91;4124690;28;20645;-87
2022/09/10 01:04:42;;;;;;;3.00;1.30;;;;;;;16.46;96.11;97963.88;4108695;28;20644;-88
2022/09/10 01:06:46;;;;;;;2.20;1.70;;;;;;;16.47;97.13;97968.19;4125594;28;20784;-87
2022/09/10 01:08:49;;;;;;;3.50;1.40;;;;;;;16.47;96.99;97965.53;4124431;28;20733;-87
2022/09/10 01:11:02;;;;;;;3.53;1.40;;;;;;;16.46;96.69;97969.13;4140422;28;21442;-88
2022/09/10 01:13:20;;;;;;;2.90;1.57;;;;;;;16.47;96.31;97968.19;4122511;28;21475;-87
2022/09/10 01:15:29;;;;;;;1.93;1.10;;;;;;;16.50;96.80;97977.59;4125393;28;20646;-88
2022/09/10 01:17:40;;;;;;;3.00;1.30;;;;;;;16.50;98.08;97992.41;4115607;28;20627;-88
2022/09/10 01:20:18;;;;;;;2.97;1.50;;;;;;;16.50;96.75;98000.31;4124048;28;20651;-89
2022/09/10 01:22:29;;;;;;;3.00;1.83;;;;;;;16.49;97.20;97995.19;4103932;28;20647;-88
2022/09/10 01:24:45;;;;;;;2.10;1.50;;;;;;;16.48;96.96;97996.19;4124812;28;20731;-88
2022/09/10 01:27:15;;;;;;;3.47;1.70;;;;;;;16.47;98.02;97996.31;4137694;28;20762;-88
2022/09/10 01:29:24;;;;;;;4.30;1.70;;;;;;;16.48;96.92;97990.91;4140233;28;20634;-90
2022/09/10 01:31:31;;;;;;;5.40;1.70;;;;;;;16.48;98.24;97985.66;4126238;28;20630;-88
2022/09/10 01:33:36;;;;;;;4.43;1.60;;;;;;;16.47;97.02;97981.34;4124141;28;20733;-89
2022/09/10 01:35:43;;;;;;;4.23;1.63;;;;;;;16.44;98.10;97992.16;4137883;28;20737;-88
2022/09/10 01:37:49;;;;;;;3.07;1.60;;;;;;;16.44;99.06;97980.81;4140532;28;21065;-89
2022/09/10 01:39:53;;;;;;;2.10;1.30;;;;;;;16.44;98.21;97983.44;4141833;28;20736;-87
2022/09/10 01:41:56;;;;;;;3.83;1.57;;;;;;;16.44;98.40;97986.88;4138780;28;20725;-88
2022/09/10 01:44:38;;;;;;;2.53;1.53;;;;;;;16.45;97.83;97977.19;4139006;28;20641;-88
2022/09/10 01:46:49;;;;;;;3.43;1.30;;;;;;;16.45;98.61;97987.72;4139063;28;20757;-88
2022/09/10 01:49:02;;;;;;;3.07;1.60;;;;;;;16.45;97.49;97982.44;4123944;28;20738;-88
2022/09/10 01:51:10;;;;;;;2.67;1.73;;;;;;;16.47;96.83;97978.72;4111215;28;21055;-87
2022/09/10 01:53:32;;;;;;;2.03;1.10;;;;;;;16.47;96.71;97978.72;4127149;28;20745;-88
2022/09/10 01:55:41;;;;;;;2.67;1.17;;;;;;;16.48;97.61;97985.66;4126653;28;21056;-88
2022/09/10 01:57:54;;;;;;;3.33;1.53;;;;;;;16.50;99.24;97996.84;4106286;28;20739;-87
2022/09/10 02:00:04;;;;;;;2.47;1.27;;;;;;;16.50;98.83;97983.69;4126031;28;21139;-88
2022/09/10 02:02:20;;;;;;;5.43;1.60;;;;;;;16.50;97.83;97996.84;4126341;28;20677;-88
2022/09/10 02:04:24;;;;;;;4.33;1.63;;;;;;;16.50;99.98;97993.41;4126993;28;20744;-89
2022/09/10 02:06:29;;;;;;;3.10;1.60;;;;;;;16.51;99.47;97998.53;4125969;28;20718;-88
2022/09/10 02:08:37;;;;;;;2.90;1.53;;;;;;;16.52;99.27;97993.13;4126223;28;20674;-88
2022/09/10 02:10:52;;;;;;;5.60;1.60;;;;;;;16.53;99.11;97989.50;4110395;28;20666;-88
2022/09/10 02:12:57;;;;;;;2.33;1.30;;;;;;;16.54;99.34;97988.53;4124627;28;21562;-88
2022/09/10 02:15:31;;;;;;;4.90;1.47;;;;;;;16.56;99.27;97991.84;4115454;28;20639;-89
2022/09/10 02:18:02;;;;;;;5.87;1.50;;;;;;;16.60;98.08;97992.41;4119543;28;20636;-89
2022/09/10 02:20:07;;;;;;;2.67;1.23;;;;;;;16.59;97.21;97990.72;4110577;28;20671;-89
2022/09/10 02:22:10;;;;;;;2.27;1.50;;;;;;;16.59;97.20;97996.81;4111072;28;20635;-88
2022/09/10 02:24:14;;;;;;;4.10;1.40;;;;;;;16.59;98.61;97988.91;4124124;28;21284;-88
2022/09/10 02:26:17;;;;;;;5.00;1.60;;;;;;;16.57;98.79;97993.50;4108695;28;20656;-88
2022/09/10 02:28:20;;;;;;;2.10;1.30;;;;;;;16.54;98.92;97980.63;4140550;28;21431;-88
2022/09/10 02:30:23;;;;;;;3.20;1.40;;;;;;;16.49;97.86;97979.38;4125510;28;20642;-88
2022/09/10 02:32:27;;;;;;;2.77;1.40;;;;;;;16.46;97.44;97979.66;4122818;28;20635;-88
2022/09/10 02:34:32;;;;;;;3.17;1.20;;;;;;;16.47;99.27;97983.16;4121126;28;20638;-88
2022/09/10 02:36:35;;;;;;;2.47;1.50;;;;;;;16.46;99.13;97973.59;4125353;28;21086;-88
2022/09/10 02:38:39;;;;;;;2.93;1.40;;;;;;;16.44;99.34;97984.25;4121437;28;20642;-88
2022/09/10 02:40:43;;;;;;;2.30;1.40;;;;;;;16.44;97.86;97983.44;4123765;28;20638;-88
2022/09/10 02:42:46;;;;;;;4.50;1.50;;;;;;;16.44;99.34;97979.00;4125256;28;20642;-88
2022/09/10 02:44:55;;;;;;;2.97;1.37;;;;;;;16.42;98.13;97974.84;4102171;28;20704;-88
2022/09/10 02:46:58;;;;;;;2.20;1.37;;;;;;;16.39;98.09;97981.22;4125515;28;20689;-89
2022/09/10 02:49:01;;;;;;;2.23;1.40;;;;;;;16.42;98.95;97991.47;4124022;28;20651;-88
2022/09/10 02:51:08;;;;;;;3.33;1.30;;;;;;;16.42;100.00;97991.47;4140314;28;20759;-88
2022/09/10 02:53:13;;;;;;;3.87;1.40;;;;;;;16.41;100.00;97989.00;4107721;28;20632;-88
2022/09/10 02:55:16;;;;;;;3.23;1.47;;;;;;;16.39;99.77;97989.13;4111844;28;21300;-88
2022/09/10 02:57:19;;;;;;;3.50;1.33;;;;;;;16.39;99.62;97990.91;4108728;28;20683;-88
2022/09/10 02:59:23;;;;;;;10.00;1.90;;;;;;;16.39;99.53;97988.28;4123173;28;21416;-89
2022/09/10 03:01:26;;;;;;;3.13;1.80;;;;;;;16.39;100.00;97978.59;4121707;28;21114;-88
2022/09/10 03:03:37;;;;;;;6.00;1.30;;;;;;;16.41;99.66;97974.00;4110756;28;20631;-88
2022/09/10 03:05:41;;;;;;;3.93;1.50;;;;;;;16.41;99.98;97971.38;4121264;28;20734;-88
2022/09/10 03:07:46;;;;;;;3.80;1.47;;;;;;;16.41;99.97;97965.28;4128036;28;20668;-87
2022/09/10 03:09:49;;;;;;;3.70;1.30;;;;;;;16.44;99.75;97975.53;4123149;28;20634;-88
2022/09/10 03:11:52;;;;;;;4.20;1.37;;;;;;;16.44;99.89;97978.19;4112623;28;20637;-88
2022/09/10 03:13:55;;;;;;;3.67;1.80;;;;;;;16.45;99.32;97974.53;4140283;28;20642;-88
2022/09/10 03:15:58;;;;;;;2.50;1.20;;;;;;;16.43;99.68;97972.06;4139233;28;21400;-87
2022/09/10 03:18:02;;;;;;;3.10;1.40;;;;;;;16.44;99.74;97970.28;4123878;28;20664;-88
2022/09/10 03:20:05;;;;;;;2.00;1.30;;;;;;;16.44;99.31;97965.00;4124600;28;20643;-88
2022/09/10 03:22:10;;;;;;;5.33;1.60;;;;;;;16.42;99.80;97967.78;4127970;28;20999;-87
2022/09/10 03:24:15;;;;;;;2.80;1.50;;;;;;;16.44;99.78;97959.75;4113915;28;21221;-88
2022/09/10 03:26:21;;;;;;;2.20;1.20;;;;;;;16.45;98.73;97956.97;4110765;28;20640;-88
2022/09/10 03:28:25;;;;;;;3.20;1.40;;;;;;;16.45;99.15;97961.38;4110782;28;20672;-88
2022/09/10 03:30:28;;;;;;;5.07;1.40;;;;;;;16.43;98.99;97963.34;4127606;28;20694;-88
2022/09/10 03:32:33;;;;;;;2.07;1.30;;;;;;;16.42;99.85;97967.78;4142471;28;20782;-88
2022/09/10 03:34:36;;;;;;;4.10;1.43;;;;;;;16.44;99.64;97970.28;4141768;28;20723;-89
2022/09/10 03:36:40;;;;;;;2.33;1.30;;;;;;;16.44;98.56;97960.56;4139900;28;20850;-87
2022/09/10 03:38:45;;;;;;;2.30;1.20;;;;;;;16.45;99.92;97966.66;4126311;28;20627;-88
2022/09/10 03:40:49;;;;;;;5.37;1.80;;;;;;;16.46;98.32;97965.69;4126668;28;21229;-87
2022/09/10 03:42:52;;;;;;;3.70;1.30;;;;;;;16.45;99.11;97966.66;4127018;28;20701;-88
2022/09/10 03:44:56;;;;;;;2.30;1.10;;;;;;;16.46;100.00;97963.06;4110026;28;20635;-87
2022/09/10 03:46:59;;;;;;;2.10;1.10;;;;;;;16.44;99.16;97965.84;4109927;28;22118;-87
2022/09/10 03:49:03;;;;;;;6.43;1.10;;;;;;;16.46;100.00;97963.06;4124555;28;20722;-90
2022/09/10 03:51:09;;;;;;;2.00;1.30;;;;;;;16.45;98.94;97962.22;4127471;28;20626;-87
2022/09/10 03:53:13;;;;;;;3.40;1.27;;;;;;;16.45;99.40;97950.84;4141940;28;21097;-88
2022/09/10 03:55:16;;;;;;;6.60;1.67;;;;;;;16.46;98.77;97957.78;4124950;28;20649;-87
2022/09/10 03:57:22;;;;;;;5.83;1.40;;;;;;;16.46;100.00;97963.06;4128253;28;20753;-87
2022/09/10 03:59:25;;;;;;;2.83;1.37;;;;;;;16.47;98.10;97962.09;4126261;28;20650;-88
2022/09/10 04:01:32;;;;;;;2.10;1.10;;;;;;;16.47;99.85;97965.53;4124652;28;20634;-88
2022/09/10 04:03:37;;;;;;;3.73;1.33;;;;;;;16.47;98.74;97965.53;4127929;28;21257;-87
2022/09/10 04:05:43;;;;;;;2.50;1.30;;;;;;;16.48;98.49;97967.22;4123790;28;20631;-86
2022/09/10 04:07:46;;;;;;;2.43;1.03;;;;;;;16.50;98.74;97960.00;4128492;28;20738;-87
2022/09/10 04:09:49;;;;;;;3.00;1.20;;;;;;;16.48;98.71;97953.19;4144608;28;20663;-88
2022/09/10 04:11:52;;;;;;;3.20;1.20;;;;;;;16.50;98.45;97957.34;4129867;28;20685;-87
2022/09/10 04:13:59;;;;;;;5.57;1.10;;;;;;;16.50;98.70;97955.53;4125993;28;20715;-87
2022/09/10 04:16:03;;;;;;;1.90;1.00;;;;;;;16.49;98.29;97955.69;4141924;28;20645;-88
2022/09/10 04:18:07;;;;;;;2.13;1.13;;;;;;;16.49;98.87;97960.13;4141538;28;20638;-88
2022/09/10 04:20:10;;;;;;;2.80;1.50;;;;;;;16.51;98.91;97965.13;4144316;28;20660;-88
2022/09/10 04:22:14;;;;;;;2.40;1.20;;;;;;;16.53;99.67;97957.88;4143906;28;20661;-87
2022/09/10 04:24:18;;;;;;;2.77;1.30;;;;;;;16.54;98.03;97956.09;4109705;28;20715;-89
2022/09/10 04:26:22;;;;;;;2.40;1.37;;;;;;;16.56;98.64;97962.88;4126882;28;20636;-87
2022/09/10 04:28:25;;;;;;;3.83;1.40;;;;;;;16.57;98.79;97961.91;4110114;28;20684;-88
2022/09/10 04:30:31;;;;;;;3.87;1.53;;;;;;;16.57;98.50;97955.81;4126367;28;20648;-88
2022/09/10 04:32:34;;;;;;;2.00;1.00;;;;;;;16.56;98.19;97964.69;4127892;28;20733;-87
2022/09/10 04:34:37;;;;;;;3.23;1.43;;;;;;;16.55;98.19;97963.00;4139726;28;20731;-88
2022/09/10 04:36:41;;;;;;;2.40;1.30;;;;;;;16.56;98.52;97962.06;4110693;28;20688;-87
2022/09/10 04:38:44;;;;;;;2.73;1.33;;;;;;;16.56;97.58;97969.94;4108592;28;20738;-86
2022/09/10 04:40:49;;;;;;;4.03;1.80;;;;;;;16.58;97.39;97970.63;4124647;28;20735;-89
2022/09/10 04:42:52;;;;;;;3.40;1.93;;;;;;;16.59;97.85;97959.94;4126377;28;20646;-88
2022/09/10 04:44:56;;;;;;;3.03;1.97;;;;;;;16.60;97.31;97966.88;4127508;28;20666;-87
2022/09/10 04:47:02;;;;;;;3.60;1.80;;;;;;;16.62;97.53;97964.91;4139008;28;20980;-87
2022/09/10 04:49:05;;;;;;;3.53;1.70;;;;;;;16.62;98.15;97970.19;4142730;28;20746;-87
2022/09/10 04:51:12;;;;;;;2.83;1.80;;;;;;;16.61;98.58;97968.56;4141489;28;20627;-88
2022/09/10 04:53:30;;;;;;;2.40;1.60;;;;;;;16.62;99.45;97969.38;4125815;28;20748;-87
2022/09/10 04:55:33;;;;;;;2.93;1.50;;;;;;;16.60;98.99;97966.06;4139516;28;21053;-87
2022/09/10 04:57:36;;;;;;;3.30;2.07;;;;;;;16.62;99.42;97964.91;4143302;28;20733;-87
2022/09/10 04:59:40;;;;;;;3.57;1.67;;;;;;;16.62;100.00;97970.19;4124113;28;20960;-87
2022/09/10 05:01:43;;;;;;;2.70;1.60;;;;;;;16.61;99.68;97979.09;4140535;28;20671;-87
2022/09/10 05:03:47;;;;;;;3.83;1.90;;;;;;;16.62;99.85;97980.72;4107583;28;20676;-87
2022/09/10 05:05:50;;;;;;;3.03;2.00;;;;;;;16.63;99.40;97987.66;4123742;28;20900;-88
2022/09/10 05:07:53;;;;;;;2.87;1.50;;;;;;;16.64;98.98;97991.13;4126569;28;20632;-87
2022/09/10 05:09:56;;;;;;;2.57;1.77;;;;;;;16.65;100.00;97987.53;4126322;28;20687;-87
2022/09/10 05:12:00;;;;;;;4.03;1.77;;;;;;;16.65;98.54;97993.59;4125215;28;20681;-87
2022/09/10 05:14:03;;;;;;;2.60;1.77;;;;;;;16.67;99.83;97991.69;4130264;28;20669;-87
2022/09/10 05:16:07;;;;;;;3.50;1.67;;;;;;;16.69;99.71;97984.44;4125397;28;20639;-88
2022/09/10 05:18:10;;;;;;;3.50;1.40;;;;;;;16.69;98.83;97976.56;4123731;28;21217;-87
2022/09/10 05:20:15;;;;;;;2.13;1.60;;;;;;;16.72;99.19;97978.06;4126715;28;20631;-87
2022/09/10 05:22:29;;;;;;;3.73;1.60;;;;;;;16.72;99.21;97986.81;4127489;28;20646;-88
2022/09/10 05:24:42;;;;;;;2.83;1.50;;;;;;;16.72;99.36;97986.81;4124192;28;20627;-87
2022/09/10 05:26:46;;;;;;;3.60;1.70;;;;;;;16.70;99.95;97983.50;4141951;28;20666;-86
2022/09/10 05:28:50;;;;;;;5.03;1.90;;;;;;;16.73;100.00;97990.25;4140996;28;20630;-87
2022/09/10 05:30:53;;;;;;;4.10;1.73;;;;;;;16.75;100.00;97988.31;4124460;28;20652;-87
2022/09/10 05:32:59;;;;;;;4.37;1.50;;;;;;;16.74;99.65;97992.75;4108653;28;20636;-87
2022/09/10 05:35:04;;;;;;;4.20;1.60;;;;;;;16.77;99.02;97989.00;4122935;28;20625;-88
2022/09/10 05:37:12;;;;;;;3.20;1.50;;;;;;;16.77;98.89;97989.00;4125915;28;20634;-87
2022/09/10 05:39:16;;;;;;;6.70;1.77;;;;;;;16.78;99.23;97988.84;4141729;28;20630;-87
2022/09/10 05:41:19;;;;;;;2.60;1.60;;;;;;;16.78;99.99;97996.75;4125361;28;20636;-87
2022/09/10 05:43:24;;;;;;;3.70;1.60;;;;;;;16.80;99.38;98000.06;4109252;28;20635;-87
2022/09/10 05:45:27;;;;;;;4.63;1.97;;;;;;;16.79;99.47;97992.31;4110325;28;20771;-88
2022/09/10 05:47:33;;;;;;;6.97;2.10;;;;;;;16.80;100.00;97999.25;4109338;28;20694;-88
2022/09/10 05:49:37;;;;;;;4.23;1.73;;;;;;;16.80;100.00;97994.78;4127686;28;21304;-87
2022/09/10 05:51:40;;;;;;;3.27;1.60;;;;;;;16.82;100.00;97998.09;4137955;28;20637;-87
2022/09/10 05:53:45;;;;;;;4.13;1.37;;;;;;;16.83;100.00;97997.16;4108932;28;20644;-88
2022/09/10 05:55:48;;;;;;;3.40;1.20;;;;;;;16.84;99.39;97993.53;4138656;28;20648;-87
2022/09/10 05:57:51;;;;;;;4.20;1.70;;;;;;;16.86;99.26;97999.50;4123471;28;20702;-87
2022/09/10 05:59:56;;;;;;;3.07;1.37;;;;;;;16.85;99.22;98003.09;4124386;28;20671;-87
2022/09/10 06:01:59;;;;;;;1.97;1.40;;;;;;;16.86;99.91;98003.94;4125862;28;20646;-87
2022/09/10 06:04:03;;;;;;;2.27;1.40;;;;;;;16.88;99.47;97994.91;4108965;28;20633;-87
2022/09/10 06:06:07;;;;;;;2.87;1.43;;;;;;;16.90;99.39;97998.22;4141045;28;20689;-87
2022/09/10 06:08:11;;;;;;;2.30;1.40;;;;;;;16.94;99.84;98002.22;4140765;28;21189;-87
2022/09/10 06:10:20;;;;;;;4.07;1.40;;;;;;;16.95;98.94;97997.78;4140296;28;20685;-87
2022/09/10 06:12:26;;;;;;;2.67;1.30;;;;;;;16.96;100.00;98004.72;4111393;28;20727;-87
2022/09/10 06:14:29;;;;;;;4.60;1.50;;;;;;;16.97;99.68;98001.09;4143645;28;20689;-87
2022/09/10 06:16:33;;;;;;;3.07;1.63;;;;;;;16.97;100.00;98001.94;4125919;28;20742;-87
2022/09/10 06:18:37;;;;;;;3.10;1.60;;;;;;;16.98;99.61;98014.97;4125997;28;20987;-88
2022/09/10 06:20:43;;;;;;;2.57;1.30;;;;;;;16.98;99.63;98008.88;4123951;28;20640;-88
2022/09/10 06:22:46;;;;;;;2.73;1.63;;;;;;;16.99;99.84;98007.91;4107334;28;21122;-87
2022/09/10 06:24:50;;;;;;;2.43;1.50;;;;;;;16.99;100.00;98014.00;4138712;28;20639;-87
2022/09/10 06:26:56;;;;;;;7.10;1.27;;;;;;;17.03;100.00;98023.28;4109063;28;20646;-87
2022/09/10 06:29:00;;;;;;;2.23;1.23;;;;;;;17.04;100.00;98010.91;4121796;28;20666;-87
2022/09/10 06:31:04;;;;;;;2.73;1.20;;;;;;;17.07;99.60;98018.53;4125134;28;20654;-87
2022/09/10 06:33:12;;;;;;;2.07;1.20;;;;;;;17.09;100.00;98019.22;4125940;28;20635;-87
2022/09/10 06:35:15;;;;;;;2.20;1.23;;;;;;;17.12;99.92;98018.91;4124373;28;20659;-87
2022/09/10 06:37:19;;;;;;;2.60;1.60;;;;;;;17.14;99.73;98024.91;4109837;28;21231;-87
2022/09/10 06:39:22;;;;;;;3.67;1.40;;;;;;;17.18;100.00;98013.88;4122312;28;20674;-87
2022/09/10 06:41:29;;;;;;;5.73;1.63;;;;;;;17.19;100.00;98018.19;4122955;28;20639;-89
2022/09/10 06:43:40;;;;;;;3.50;1.70;;;;;;;17.21;99.64;98018.06;4125861;28;20647;-87
2022/09/10 06:45:55;;;;;;;6.77;5.47;;;;;;;17.28;100.00;98027.06;4125070;28;20651;-87
2022/09/10 06:48:18;;;;;;;6.60;5.90;;;;;;;17.35;99.23;98022.84;4124810;28;21377;-87
2022/09/10 06:50:52;;;;;;;4.27;3.27;;;;;;;17.39;99.29;98032.13;4122664;28;20664;-89
2022/09/10 06:52:55;;;;;;;3.13;2.03;;;;;;;17.42;99.50;98032.66;4139155;28;21518;-87
2022/09/10 06:54:59;;;;;;;2.90;1.63;;;;;;;17.43;99.51;98034.31;4128468;28;20639;-87
2022/09/10 06:57:12;;;;;;;3.03;1.20;;;;;;;17.39;98.88;98032.94;4144729;28;20630;-87
2022/09/10 06:59:17;;;;;;;1.73;1.27;;;;;;;17.32;99.50;98033.69;4128391;28;20960;-87
2022/09/10 07:01:24;;;;;;;4.00;1.50;;;;;;;17.33;99.47;98032.72;4129034;28;20722;-87
2022/09/10 07:03:30;;;;;;;2.83;1.10;;;;;;;17.30;98.99;98036.47;4125279;28;20621;-87
2022/09/10 07:05:33;;;;;;;3.23;1.80;;;;;;;17.32;99.89;98033.69;4140850;28;20650;-88
2022/09/10 07:07:38;;;;;;;3.37;1.50;;;;;;;17.37;99.13;98044.63;4144350;28;20640;-88
2022/09/10 07:09:43;;;;;;;3.60;1.67;;;;;;;17.39;99.89;98042.66;4126200;28;20650;-88
2022/09/10 07:11:49;;;;;;;2.23;1.47;;;;;;;17.38;100.00;98038.38;4143752;28;20691;-88
2022/09/10 07:13:54;;;;;;;3.93;1.50;;;;;;;17.35;99.09;98038.66;4126483;28;20701;-89
2022/09/10 07:16:04;;;;;;;2.57;1.47;;;;;;;17.31;98.77;98043.41;4111567;28;20645;-88
2022/09/10 07:18:13;;;;;;;3.63;1.67;;;;;;;17.35;99.58;98054.47;4129528;28;20681;-88
2022/09/10 07:20:17;;;;;;;2.73;1.43;;;;;;;17.41;100.00;98051.25;4129610;28;20624;-88
2022/09/10 07:22:22;;;;;;;2.90;1.40;;;;;;;17.45;100.00;98060.53;4128570;28;20626;-87
2022/09/10 07:24:25;;;;;;;3.63;1.80;;;;;;;17.51;100.00;98058.13;4115769;28;21289;-87
2022/09/10 07:26:40;;;;;;;3.40;1.60;;;;;;;17.59;100.00;98059.06;4132340;28;20644;-87
2022/09/10 07:28:44;;;;;;;3.50;2.13;;;;;;;17.68;100.00;98059.97;4126784;28;20646;-86
2022/09/10 07:30:48;;;;;;;2.20;1.50;;;;;;;17.75;100.00;98069.78;4140926;28;21209;-85
2022/09/10 07:32:53;;;;;;;2.33;1.50;;;;;;;17.80;99.59;98072.81;4142799;28;20748;-85
2022/09/10 07:35:00;;;;;;;8.00;5.90;;;;;;;17.81;100.00;98076.28;4124013;28;20627;-85
2022/09/10 07:37:04;;;;;;;3.80;2.07;;;;;;;17.79;99.85;98075.63;4126058;28;20639;-85
2022/09/10 07:39:10;;;;;;;4.50;1.57;;;;;;;17.75;99.97;98076.88;4124947;28;20637;-85
2022/09/10 07:41:15;;;;;;;3.20;1.70;;;;;;;17.71;100.00;98067.59;4127600;28;20678;-85
2022/09/10 07:43:18;;;;;;;2.77;1.70;;;;;;;17.67;99.70;98074.16;4112513;28;20636;-85
2022/09/10 07:45:21;;;;;;;2.73;1.60;;;;;;;17.67;99.55;98072.34;4109232;28;20641;-85
2022/09/10 07:47:26;;;;;;;3.20;1.53;;;;;;;17.58;98.83;98081.16;4109831;28;20649;-85
2022/09/10 07:49:31;;;;;;;3.40;1.50;;;;;;;17.51;99.39;98085.38;4127430;28;20703;-85
2022/09/10 07:51:34;;;;;;;5.30;1.80;;;;;;;17.42;99.28;98081.94;4125132;28;20735;-86
2022/09/10 07:53:38;;;;;;;2.43;1.70;;;;;;;17.41;99.35;98077.63;4144065;28;21178;-85
2022/09/10 07:55:58;;;;;;;3.00;1.40;;;;;;;17.46;100.00;98084.13;4126160;28;20743;-86
2022/09/10 07:58:03;;;;;;;4.70;1.50;;;;;;;17.49;100.00;98082.03;4141462;28;20800;-85
2022/09/10 08:00:13;;;;;;;2.13;1.57;;;;;;;17.58;100.00;98086.41;4136810;28;20634;-85
2022/09/10 08:02:25;;;;;;;2.60;1.53;;;;;;;17.58;99.47;98091.69;4128493;28;20632;-86
2022/09/10 08:04:36;;;;;;;2.00;1.20;;;;;;;17.60;100.00;98091.53;4126937;28;20734;-85
2022/09/10 08:06:43;;;;;;;3.10;1.80;;;;;;;17.63;100.00;98088.63;4129543;28;20656;-85
2022/09/10 08:08:46;;;;;;;2.37;1.50;;;;;;;17.65;100.00;98095.41;4142592;28;20632;-85
2022/09/10 08:10:50;;;;;;;3.10;1.80;;;;;;;17.60;99.39;98094.19;4132304;28;21032;-86
2022/09/10 08:12:53;;;;;;;4.77;1.70;;;;;;;17.59;99.71;98089.88;4112208;28;20631;-85
2022/09/10 08:14:57;;;;;;;3.90;2.33;;;;;;;17.64;99.93;98098.19;4125921;28;20657;-84
2022/09/10 08:17:01;;;;;;;5.00;2.03;;;;;;;17.59;98.90;98089.88;4138820;28;21012;-84
2022/09/10 08:19:05;;;;;;;2.07;1.33;;;;;;;17.54;99.11;98094.78;4128838;28;20643;-85
2022/09/10 08:21:11;;;;;;;4.00;1.40;;;;;;;17.54;98.96;98092.13;4138062;28;20627;-83
2022/09/10 08:23:14;;;;;;;2.77;1.33;;;;;;;17.52;98.59;98094.91;4136984;28;20646;-83
2022/09/10 08:25:18;;;;;;;3.03;1.40;;;;;;;17.56;98.71;98106.84;4142589;28;20631;-86
2022/09/10 08:27:22;;;;;;;4.57;1.67;;;;;;;17.60;100.00;98104.72;4125351;28;20679;-86
2022/09/10 08:29:25;;;;;;;2.67;1.10;;;;;;;17.59;98.29;98109.19;4138524;28;20810;-84
2022/09/10 08:31:28;;;;;;;2.97;1.47;;;;;;;17.65;99.60;98105.97;4122370;28;20717;-88
2022/09/10 08:33:40;;;;;;;2.40;1.50;;;;;;;17.70;99.33;98116.91;4109387;28;20635;-84
2022/09/10 08:35:43;;;;;;;2.83;1.50;;;;;;;17.73;98.94;98108.69;4136297;28;21250;-86
2022/09/10 08:37:48;;;;;;;1.83;1.03;;;;;;;17.73;98.21;98115.78;4119816;28;20649;-84
2022/09/10 08:39:51;;;;;;;3.10;1.40;;;;;;;17.70;97.50;98114.25;4127291;28;20644;-84
2022/09/10 08:42:01;;;;;;;2.73;1.50;;;;;;;17.71;99.22;98115.94;4128092;28;20674;-85
2022/09/10 08:44:07;;;;;;;3.50;1.40;;;;;;;17.75;98.52;98114.63;4134751;28;20628;-87
2022/09/10 08:46:19;;;;;;;2.63;1.40;;;;;;;17.80;97.53;98120.31;4138524;28;20663;-90
2022/09/10 08:48:25;;;;;;;3.70;1.53;;;;;;;17.85;97.32;98119.88;4153149;28;20997;-90
2022/09/10 08:50:36;;;;;;;2.50;1.40;;;;;;;17.94;97.84;98118.00;4127871;28;20636;-92
2022/09/10 08:52:49;;;;;;;6.63;1.40;;;;;;;18.11;98.21;98119.81;4111205;28;20723;-90
2022/09/10 08:55:03;;;;;;;2.00;1.10;;;;;;;18.29;97.66;98133.06;4111499;28;20640;-90
2022/09/10 08:57:15;;;;;;;2.27;1.47;;;;;;;18.46;95.13;98133.88;4135835;28;20659;-88
2022/09/10 08:59:24;;;;;;;2.70;1.20;;;;;;;18.45;93.20;98129.56;4140260;28;20742;-88
2022/09/10 09:01:33;;;;;;;3.37;1.20;;;;;;;18.45;93.34;98124.28;4113297;28;21285;-87
2022/09/10 09:03:40;;;;;;;4.23;1.20;;;;;;;18.51;93.81;98121.03;4113338;28;20715;-90
2022/09/10 09:05:47;;;;;;;2.70;1.40;;;;;;;18.65;94.91;98122.31;4126980;28;20641;-90
2022/09/10 09:07:53;;;;;;;2.83;1.57;;;;;;;18.70;94.96;98123.53;4117690;28;20656;-94
2022/09/10 09:10:00;;;;;;;2.93;1.37;;;;;;;18.69;91.81;98110.47;4128569;28;20667;-93
2022/09/10 09:12:06;;;;;;;3.10;1.43;;;;;;;18.74;93.04;98111.63;4127703;28;20673;-90
2022/09/10 09:14:25;;;;;;;3.20;1.33;;;;;;;18.81;91.56;98119.78;4122347;28;20641;-88
2022/09/10 09:16:58;;;;;;;3.17;1.40;;;;;;;18.85;94.55;98124.59;4137527;28;20758;-87
2022/09/10 09:19:13;;;;;;;3.67;1.40;;;;;;;18.92;92.92;98123.81;4104238;28;20628;-89
2022/09/10 09:21:17;;;;;;;4.43;1.40;;;;;;;19.00;92.05;98123.03;4113303;28;20630;-89
2022/09/10 09:23:24;;;;;;;3.80;1.30;;;;;;;19.01;90.25;98120.28;4142045;28;20648;-88
2022/09/10 09:25:33;;;;;;;2.90;1.30;;;;;;;18.92;89.46;98117.72;4138752;28;20699;-85
2022/09/10 09:27:40;;;;;;;5.40;1.97;;;;;;;18.78;90.34;98115.66;4138997;28;20742;-88
2022/09/10 09:29:47;;;;;;;3.93;1.93;;;;;;;18.66;92.01;98111.59;4107743;28;20638;-84
2022/09/10 09:31:52;;;;;;;3.50;1.93;;;;;;;18.56;93.45;98115.31;4120129;28;21237;-85
2022/09/10 09:34:00;;;;;;;2.87;1.40;;;;;;;18.59;94.04;98113.16;4139682;28;21029;-86
2022/09/10 09:36:04;;;;;;;4.57;2.23;;;;;;;18.55;93.53;98106.56;4119052;28;20638;-88
2022/09/10 09:38:18;;;;;;;4.20;2.83;;;;;;;18.59;93.38;98109.72;4124297;28;20622;-88
2022/09/10 09:40:29;;;;;;;6.97;3.80;;;;;;;18.69;94.32;98116.56;4122932;28;21182;-89
2022/09/10 09:42:40;;;;;;;5.23;2.00;;;;;;;18.76;94.33;98117.59;4139414;28;20640;-90
2022/09/10 09:44:48;;;;;;;2.57;1.50;;;;;;;18.84;94.31;98119.47;4124564;28;21240;-90
2022/09/10 09:46:59;;;;;;;2.47;1.43;;;;;;;18.89;93.91;98123.31;4124154;28;20681;-88
2022/09/10 09:49:03;;;;;;;3.20;1.57;;;;;;;18.91;93.92;98118.69;4123289;28;20706;-89
2022/09/10 09:51:12;;;;;;;4.97;1.50;;;;;;;18.91;93.24;98119.53;4121160;28;21065;-90
2022/09/10 09:53:19;;;;;;;3.50;1.50;;;;;;;19.03;94.20;98120.13;4121071;28;20669;-87